• Join FlightAware (Why Join?)
  • Login
  • US Flag 
Gobble Gobble! 
04:01PM EST


 

Airport Tracker/Info


-or-


 

Live Flight TrackerFlight Track Log ✈ EJA922 ✈ 27-Aug-2013 ✈ KMSP - KMKC

Flight Track Log - Related Links

Times and Time Zones

All times are in EDT time to prevent confusion due to time zone crossing. See the EJA922 flight status page for this flight to view local times or setup timezone preferences in your user account.

Time Position Orientation Groundspeed Altitude Reporting Facility
EDT Latitude Longitude Course Direction KTS MPH feet Rate Location/Type
10:11AM 44.9000 -93.2833 260° West 217 250 3,900  Level Minneapolis TRACON
10:12AM 44.8836 -93.4103 260° West 261 300 7,200 2,460 Climbing Minneapolis Center
10:13AM 44.8494 -93.4978 241° Southwest 275 316 9,800 2,340 Climbing Minneapolis Center
10:14AM 44.7636 -93.5164 189° South 320 368 12,000 2,280 Climbing Minneapolis Center
10:15AM 44.6747 -93.5458 193° South 331 381 14,500 2,280 Climbing Minneapolis Center
10:16AM 44.5586 -93.5817 192° South 361 415 16,800 1,800 Climbing Minneapolis Center
10:18AM 44.4781 -93.6069 193° South 371 427 18,300 1,800 Climbing Minneapolis Center
10:19AM 44.3622 -93.6719 202° Southwest 378 435 20,600 1,740 Climbing Minneapolis Center
10:20AM 44.2694 -93.7467 210° Southwest 384 442 22,000 1,260 Climbing Minneapolis Center
10:21AM 44.1742 -93.8228 210° Southwest 391 450 23,300 1,260 Climbing Minneapolis Center
10:22AM 44.0764 -93.9008 210° Southwest 403 464 24,700 1,320 Climbing Minneapolis Center
10:23AM 43.9578 -93.9969 210° Southwest 410 472 26,400 1,440 Climbing Minneapolis Center
10:24AM 43.8364 -94.0928 210° Southwest 418 481 28,000 1,260 Climbing Minneapolis Center
10:25AM 43.7336 -94.1728 209° Southwest 422 486 29,100 1,020 Climbing Minneapolis Center
10:26AM 43.6189 -94.2269 199° South 449 517 30,200 1,140 Climbing Minneapolis Center
10:27AM 43.4950 -94.2361 183° South 453 521 31,500 840 Climbing Minneapolis Center
10:28AM 43.3414 -94.2456 183° South 462 532 32,000 240 Climbing Minneapolis Center
10:29AM 43.2031 -94.2556 183° South 483 556 32,000  Level Minneapolis Center
10:30AM 43.0597 -94.2661 183° South 504 580 32,000  Level Minneapolis Center
10:31AM 42.9186 -94.2744 182° South 515 593 32,000  Level Minneapolis Center
10:32AM 42.7744 -94.2844 183° South 522 601 32,000  Level Minneapolis Center
10:33AM 42.6308 -94.2961 183° South 524 603 32,000  Level Minneapolis Center
10:34AM 42.4639 -94.3581 195° South 524 603 32,000  Level Minneapolis Center
10:35AM 42.3439 -94.4089 197° South 518 596 32,000  Level Minneapolis Center
10:36AM 42.1764 -94.4781 197° South 521 600 32,000  Level Minneapolis Center
10:37AM 42.0381 -94.5367 197° South 521 600 32,000  Level Minneapolis Center
10:38AM 41.8994 -94.5939 197° South 519 597 32,000  Level Minneapolis Center
10:39AM 41.7611 -94.6514 197° South 519 597 32,000  Level Minneapolis Center
10:40AM 41.6228 -94.7092 197° South 518 596 32,000  Level Minneapolis Center
10:41AM 41.4847 -94.7669 197° South 518 596 32,000  Level Minneapolis Center
10:42AM 41.3469 -94.8228 197° South 516 594 32,000 -180 Level Minneapolis Center
10:43AM 41.2103 -94.8794 197° South 513 590 31,700 -720 Descending Minneapolis Center
10:45AM 41.0447 -94.9467 197° South 514 592 30,600 -1,020 Descending Minneapolis Center
10:46AM 40.9083 -95.0019 197° South 512 589 29,600 -1,200 Descending Minneapolis Center
10:47AM 40.7736 -95.0567 197° South 508 585 28,200 -1,620 Descending Minneapolis Center
10:48AM 40.6411 -95.1100 197° South 502 578 26,400 -1,920 Descending Minneapolis Center
10:49AM 40.5125 -95.1611 197° South 491 565 24,300 -1,980 Descending Minneapolis Center
10:50AM 40.3894 -95.2103 197° South 479 551 22,000 -2,040 Descending Minneapolis Center
10:51AM 40.2475 -95.2678 197° South 460 529 19,300 -2,280 Descending Minneapolis Center
10:52AM 40.0950 -95.3283 197° South 419 482 16,400 -2,340 Descending Minneapolis Center
10:53AM 39.9697 -95.3769 197° South 397 457 14,000 -2,160 Descending Minneapolis Center
10:54AM 39.8647 -95.4019 190° South 391 450 12,000 -1,800 Descending Minneapolis Center
10:55AM 39.7742 -95.3417 153° Southeast 374 430 10,400 -900 Descending Minneapolis Center
10:57AM 39.6994 -95.2606 140° Southeast 357 411 10,000 -240 Descending Minneapolis Center
10:58AM 39.6294 -95.1178 122° Southeast 361 415 9,900 -60 Descending Minneapolis Center
10:59AM 39.5697 -94.9994 123° Southeast 385 443 9,900 -60 Level Minneapolis Center
11:00AM 39.5089 -94.8806 124° Southeast 396 456 9,800 -300 Descending Minneapolis Center
11:01AM 39.4614 -94.7839 122° Southeast 340 391 9,300 -1,500 Descending Minneapolis Center
11:02AM 39.4200 -94.7019 123° Southeast 288 331 6,700 -2,100 Descending Minneapolis Center
11:03AM 39.3500 -94.6167 137° Southeast 266 306 4,900 -1,620 Descending Kansas City TRACON
11:04AM 39.3000 -94.5500 134° Southeast 244 281 3,400 -960 Descending Kansas City TRACON
11:05AM 39.2500 -94.5500 180° South 155 178 2,900 -540 Descending Kansas City TRACON
11:06AM 39.2167 -94.5667 201° Southwest 130 150 2,400 -720 Descending Kansas City TRACON
11:07AM 39.1667 -94.5833 194° South 131 151 1,600 -660 Descending Kansas City TRACON
11:08AM 39.1353 -94.5908 190° South 129 148 1,000 -480 Descending Kansas City Center